Time;durP1;ratioP1;P1;durP2;ratioP2;P2;SDS_P1;SDS_P2;PMS_P1;PMS_P2;Temp;Humidity;BMP_temperature;BMP_pressure;BME280_temperature;BME280_humidity;BME280_pressure;Samples;Min_cycle;Max_cycle;Signal;HPM_P1;HPM_P2
2023/12/11 00:00:08;;;;;;;88.30;43.60;;;;;;;;;;107133;1251;59873;-79
2023/12/11 00:02:34;;;;;;;89.70;42.30;;;;;;;;;;107141;1254;60954;-79
2023/12/11 00:05:01;;;;;;;90.50;43.80;;;;;;;;;;107152;1252;61616;-79
2023/12/11 00:07:27;;;;;;;94.80;41.80;;;;;;;;;;107113;1256;60810;-78
2023/12/11 00:09:54;;;;;;;83.40;40.70;;;;;;;;;;107174;1251;60881;-79
2023/12/11 00:12:20;;;;;;;67.80;39.60;;;;;;;;;;107117;1254;60811;-79
2023/12/11 00:14:46;;;;;;;99.70;54.20;;;;;;;;;;107207;1251;61001;-78
2023/12/11 00:17:13;;;;;;;89.80;46.10;;;;;;;;;;107438;1251;59809;-79
2023/12/11 00:19:39;;;;;;;104.90;48.00;;;;;;;;;;108008;1254;60018;-79
2023/12/11 00:22:06;;;;;;;105.60;44.20;;;;;;;;;;108019;1251;59838;-79
2023/12/11 00:24:32;;;;;;;115.30;50.60;;;;;;;;;;108077;1251;59258;-79
2023/12/11 00:26:59;;;;;;;96.70;44.40;;;;;;;;;;108322;1253;59133;-79
2023/12/11 00:29:25;;;;;;;67.90;33.70;;;;;;;;;;108868;1251;59808;-79
2023/12/11 00:31:52;;;;;;;70.30;37.60;;;;;;;;;;108724;1255;59651;-79
2023/12/11 00:34:18;;;;;;;66.20;34.40;;;;;;;;;;107895;1251;59800;-79
2023/12/11 00:36:46;;;;;;;70.40;35.90;;;;;;;;;;108102;1251;59350;-79
2023/12/11 00:39:15;;;;;;;70.80;37.10;;;;;;;;;;107976;1251;60864;-79
2023/12/11 00:41:43;;;;;;;84.20;40.10;;;;;;;;;;107759;1251;61449;-79
2023/12/11 00:44:09;;;;;;;77.10;38.40;;;;;;;;;;108611;1251;59307;-79
2023/12/11 00:46:36;;;;;;;164.90;74.50;;;;;;;;;;109574;1251;59741;-78
2023/12/11 00:49:02;;;;;;;198.70;85.20;;;;;;;;;;109047;1251;59622;-79
2023/12/11 00:51:29;;;;;;;122.90;55.10;;;;;;;;;;106964;1251;60391;-79
2023/12/11 00:53:55;;;;;;;98.40;50.80;;;;;;;;;;107048;1253;60830;-79
2023/12/11 00:56:22;;;;;;;114.60;60.90;;;;;;;;;;107000;1251;59824;-79
2023/12/11 00:58:48;;;;;;;133.70;68.90;;;;;;;;;;106980;1257;59817;-80
2023/12/11 01:01:15;;;;;;;131.20;61.40;;;;;;;;;;106918;1253;59836;-80
2023/12/11 01:03:41;;;;;;;121.70;61.70;;;;;;;;;;107772;1256;60861;-80
2023/12/11 01:06:08;;;;;;;161.50;83.30;;;;;;;;;;109458;1252;58902;-80
2023/12/11 01:08:38;;;;;;;140.40;73.50;;;;;;;;;;109469;1253;59086;-80
2023/12/11 01:11:05;;;;;;;113.20;57.30;;;;;;;;;;109497;1253;59804;-80
2023/12/11 01:13:32;;;;;;;120.20;63.80;;;;;;;;;;109453;1254;58823;-80
2023/12/11 01:15:58;;;;;;;128.60;69.30;;;;;;;;;;109487;1253;58898;-80
2023/12/11 01:18:26;;;;;;;140.70;67.80;;;;;;;;;;109501;1253;60900;-80
2023/12/11 01:20:52;;;;;;;129.70;64.50;;;;;;;;;;107178;1256;60867;-80
2023/12/11 01:23:18;;;;;;;104.10;52.70;;;;;;;;;;106921;1256;61920;-80
2023/12/11 01:25:45;;;;;;;113.20;55.50;;;;;;;;;;106857;1256;60997;-80
2023/12/11 01:28:11;;;;;;;107.30;56.30;;;;;;;;;;106842;1254;60553;-80
2023/12/11 01:30:38;;;;;;;119.70;53.90;;;;;;;;;;106848;1255;61875;-80
2023/12/11 01:33:04;;;;;;;132.00;70.90;;;;;;;;;;106865;1252;60162;-80
2023/12/11 01:35:33;;;;;;;124.90;64.40;;;;;;;;;;106881;1255;59336;-80
2023/12/11 01:38:00;;;;;;;115.10;55.80;;;;;;;;;;107037;1254;59892;-80
2023/12/11 01:40:27;;;;;;;107.90;56.60;;;;;;;;;;109493;1254;58908;-81
2023/12/11 01:42:53;;;;;;;108.80;53.10;;;;;;;;;;109433;1251;59114;-80
2023/12/11 01:45:19;;;;;;;114.90;57.20;;;;;;;;;;109488;1254;58937;-80
2023/12/11 01:47:46;;;;;;;147.30;73.50;;;;;;;;;;109462;1251;59027;-80
2023/12/11 01:50:12;;;;;;;147.60;73.10;;;;;;;;;;109494;1254;58824;-79
2023/12/11 01:52:39;;;;;;;130.70;69.10;;;;;;;;;;109498;1253;58850;-79
2023/12/11 01:55:06;;;;;;;128.40;64.70;;;;;;;;;;108994;1254;58898;-80
2023/12/11 01:57:33;;;;;;;131.30;65.40;;;;;;;;;;106938;1253;60983;-80
2023/12/11 01:59:59;;;;;;;123.90;59.40;;;;;;;;;;107039;1251;60958;-81
2023/12/11 02:02:26;;;;;;;119.10;61.40;;;;;;;;;;107088;1251;59725;-79
2023/12/11 02:04:53;;;;;;;124.10;61.20;;;;;;;;;;107056;1251;59682;-80
2023/12/11 02:07:20;;;;;;;116.80;58.00;;;;;;;;;;106937;1251;61733;-80
2023/12/11 02:09:47;;;;;;;118.90;60.90;;;;;;;;;;107008;1252;59813;-80
2023/12/11 02:12:13;;;;;;;134.40;66.90;;;;;;;;;;106944;1251;59721;-79
2023/12/11 02:14:40;;;;;;;110.90;56.50;;;;;;;;;;107032;1251;59684;-79
2023/12/11 02:17:08;;;;;;;103.10;53.60;;;;;;;;;;106958;1251;59734;-80
2023/12/11 02:19:34;;;;;;;108.20;54.40;;;;;;;;;;107026;1254;61923;-80
2023/12/11 02:22:01;;;;;;;77.30;43.40;;;;;;;;;;107081;1251;60598;-79
2023/12/11 02:24:30;;;;;;;82.90;45.70;;;;;;;;;;107039;1254;60675;-79
2023/12/11 02:26:56;;;;;;;79.90;37.30;;;;;;;;;;106979;1251;61512;-80
2023/12/11 02:29:24;;;;;;;81.40;40.70;;;;;;;;;;107038;1251;61052;-79
2023/12/11 02:31:50;;;;;;;89.80;45.70;;;;;;;;;;107035;1250;61624;-79
2023/12/11 02:34:17;;;;;;;89.30;41.00;;;;;;;;;;107007;1254;60833;-79
2023/12/11 02:36:43;;;;;;;77.30;39.60;;;;;;;;;;107068;1251;60785;-79
2023/12/11 02:39:09;;;;;;;79.80;38.50;;;;;;;;;;106971;1251;59794;-79
2023/12/11 02:41:36;;;;;;;76.60;40.20;;;;;;;;;;107024;1251;60737;-80
2023/12/11 02:44:02;;;;;;;70.00;37.50;;;;;;;;;;106946;1251;59882;-79
2023/12/11 02:46:29;;;;;;;83.60;42.50;;;;;;;;;;106967;1251;59762;-79
2023/12/11 02:48:55;;;;;;;106.70;54.20;;;;;;;;;;106951;1251;60805;-80
2023/12/11 02:51:22;;;;;;;102.00;50.90;;;;;;;;;;106926;1251;59872;-80
2023/12/11 02:53:48;;;;;;;101.80;55.70;;;;;;;;;;106966;1251;60841;-79
2023/12/11 02:56:15;;;;;;;90.60;49.30;;;;;;;;;;107004;1251;59753;-79
2023/12/11 02:58:43;;;;;;;105.00;53.30;;;;;;;;;;106999;1251;61091;-79
2023/12/11 03:01:10;;;;;;;111.70;62.00;;;;;;;;;;106981;1250;60756;-80
2023/12/11 03:03:36;;;;;;;110.20;60.10;;;;;;;;;;107031;1251;59792;-79
2023/12/11 03:06:03;;;;;;;104.80;56.10;;;;;;;;;;106968;1251;60550;-80
2023/12/11 03:08:30;;;;;;;100.30;53.80;;;;;;;;;;107018;1251;62134;-79
2023/12/11 03:10:57;;;;;;;102.70;58.90;;;;;;;;;;107007;1251;59771;-80
2023/12/11 03:13:23;;;;;;;106.80;56.70;;;;;;;;;;107022;1251;60810;-80
2023/12/11 03:15:50;;;;;;;97.10;55.30;;;;;;;;;;107001;1251;59852;-80
2023/12/11 03:18:16;;;;;;;98.40;54.60;;;;;;;;;;107011;1251;60024;-80
2023/12/11 03:20:43;;;;;;;96.00;55.20;;;;;;;;;;106981;1251;59762;-80
2023/12/11 03:23:09;;;;;;;125.70;63.50;;;;;;;;;;107288;1251;59153;-80
2023/12/11 03:25:36;;;;;;;121.80;64.60;;;;;;;;;;108999;1251;60895;-80
2023/12/11 03:28:02;;;;;;;119.50;64.00;;;;;;;;;;106960;1254;60859;-80
2023/12/11 03:30:29;;;;;;;109.40;62.90;;;;;;;;;;107015;1256;59897;-80
2023/12/11 03:32:55;;;;;;;94.80;53.50;;;;;;;;;;106974;1251;59956;-80
2023/12/11 03:35:22;;;;;;;88.60;47.00;;;;;;;;;;109557;1251;59236;-80
2023/12/11 03:37:48;;;;;;;70.90;35.50;;;;;;;;;;109536;1251;59123;-80
2023/12/11 03:40:15;;;;;;;49.10;26.60;;;;;;;;;;109539;1251;58858;-80
2023/12/11 03:42:41;;;;;;;48.70;25.90;;;;;;;;;;109543;1251;59049;-81
2023/12/11 03:45:08;;;;;;;40.40;21.70;;;;;;;;;;107691;1251;59815;-80
2023/12/11 03:47:34;;;;;;;31.90;19.40;;;;;;;;;;106987;1251;60794;-80
2023/12/11 03:50:01;;;;;;;31.60;17.00;;;;;;;;;;106956;1251;59827;-80
2023/12/11 03:52:27;;;;;;;38.70;20.30;;;;;;;;;;106955;1251;59666;-80
2023/12/11 03:54:54;;;;;;;35.10;19.90;;;;;;;;;;106969;1251;59822;-80
2023/12/11 03:57:20;;;;;;;42.20;23.50;;;;;;;;;;106925;1251;60802;-80
2023/12/11 03:59:47;;;;;;;49.60;24.00;;;;;;;;;;106955;1251;61107;-80
2023/12/11 04:02:13;;;;;;;53.70;24.10;;;;;;;;;;106861;1251;59846;-80
2023/12/11 04:04:39;;;;;;;45.90;24.50;;;;;;;;;;106960;1251;59922;-80
2023/12/11 04:07:06;;;;;;;31.30;18.50;;;;;;;;;;106944;1251;59214;-80
2023/12/11 04:09:32;;;;;;;33.40;18.10;;;;;;;;;;106929;1251;60784;-80
2023/12/11 04:11:59;;;;;;;43.10;23.00;;;;;;;;;;106919;1251;59915;-80
2023/12/11 04:14:26;;;;;;;41.70;24.00;;;;;;;;;;107138;1251;59921;-80
2023/12/11 04:16:53;;;;;;;45.80;24.10;;;;;;;;;;107756;1250;59790;-80
2023/12/11 04:19:19;;;;;;;42.80;22.30;;;;;;;;;;106981;1251;59676;-80
2023/12/11 04:21:46;;;;;;;40.90;23.30;;;;;;;;;;107030;1251;59826;-81
2023/12/11 04:24:12;;;;;;;44.80;23.60;;;;;;;;;;106933;1251;60644;-80
2023/12/11 04:26:39;;;;;;;50.60;27.60;;;;;;;;;;106946;1251;60881;-81
2023/12/11 04:29:06;;;;;;;44.50;27.50;;;;;;;;;;106974;1254;59839;-80
2023/12/11 04:31:32;;;;;;;42.30;25.90;;;;;;;;;;106998;1251;59804;-81
2023/12/11 04:33:59;;;;;;;62.60;27.70;;;;;;;;;;108112;1251;62906;-81
2023/12/11 04:36:26;;;;;;;41.20;23.40;;;;;;;;;;109583;1251;59143;-80
2023/12/11 04:38:52;;;;;;;41.00;24.40;;;;;;;;;;109525;1250;60351;-80
2023/12/11 04:41:19;;;;;;;50.40;33.60;;;;;;;;;;109562;1250;58829;-80
2023/12/11 04:43:45;;;;;;;62.20;40.60;;;;;;;;;;107187;1251;62153;-81
2023/12/11 04:46:12;;;;;;;50.80;31.40;;;;;;;;;;106944;1251;61938;-80
2023/12/11 04:48:38;;;;;;;56.30;35.10;;;;;;;;;;107021;1251;59683;-79
2023/12/11 04:51:05;;;;;;;66.00;40.90;;;;;;;;;;106982;1251;59861;-80
2023/12/11 04:53:31;;;;;;;75.10;48.40;;;;;;;;;;106973;1251;59879;-80
2023/12/11 04:55:58;;;;;;;58.50;35.70;;;;;;;;;;106997;1251;59731;-80
2023/12/11 04:58:24;;;;;;;67.70;41.10;;;;;;;;;;107052;1251;61034;-80
2023/12/11 05:00:51;;;;;;;56.70;36.10;;;;;;;;;;106978;1251;60646;-80
2023/12/11 05:03:17;;;;;;;50.00;33.70;;;;;;;;;;107042;1251;59674;-80
2023/12/11 05:05:43;;;;;;;45.80;26.70;;;;;;;;;;109512;1251;59452;-80
2023/12/11 05:08:10;;;;;;;29.00;17.00;;;;;;;;;;107296;1251;59854;-80
2023/12/11 05:10:36;;;;;;;18.70;11.50;;;;;;;;;;109576;1250;58896;-80
2023/12/11 05:13:03;;;;;;;12.90;7.80;;;;;;;;;;107263;1251;62051;-80
2023/12/11 05:15:29;;;;;;;16.50;8.70;;;;;;;;;;107000;1251;62120;-79
2023/12/11 05:17:56;;;;;;;13.60;8.90;;;;;;;;;;106943;1251;59902;-79
2023/12/11 05:20:22;;;;;;;20.60;14.30;;;;;;;;;;106995;1254;59232;-80
2023/12/11 05:22:49;;;;;;;14.30;10.20;;;;;;;;;;106989;1251;59908;-80
2023/12/11 05:25:15;;;;;;;14.40;6.90;;;;;;;;;;106988;1251;59841;-80
2023/12/11 05:27:42;;;;;;;12.40;8.10;;;;;;;;;;107007;1251;59356;-80
2023/12/11 05:30:08;;;;;;;21.70;15.30;;;;;;;;;;107037;1251;60666;-79
2023/12/11 05:32:35;;;;;;;10.50;7.90;;;;;;;;;;106995;1251;60701;-80
2023/12/11 05:35:02;;;;;;;11.60;6.40;;;;;;;;;;107107;1251;59856;-80
2023/12/11 05:37:29;;;;;;;34.10;18.70;;;;;;;;;;107079;1251;59621;-79
2023/12/11 05:39:56;;;;;;;39.70;22.50;;;;;;;;;;107044;1250;59818;-80
2023/12/11 05:42:22;;;;;;;42.00;23.90;;;;;;;;;;106985;1250;60749;-80
2023/12/11 05:44:49;;;;;;;42.70;25.80;;;;;;;;;;107013;1251;59294;-80
2023/12/11 05:47:15;;;;;;;24.90;13.20;;;;;;;;;;106997;1251;60959;-80
2023/12/11 05:49:42;;;;;;;23.80;14.10;;;;;;;;;;107067;1251;59807;-80
2023/12/11 05:52:08;;;;;;;24.80;11.90;;;;;;;;;;107037;1251;59900;-80
2023/12/11 05:54:35;;;;;;;72.70;39.80;;;;;;;;;;107014;1251;61089;-80
2023/12/11 05:57:01;;;;;;;32.90;20.10;;;;;;;;;;106962;1251;61043;-81
2023/12/11 05:59:28;;;;;;;19.90;11.70;;;;;;;;;;107005;1251;59841;-80
2023/12/11 06:01:54;;;;;;;9.10;4.90;;;;;;;;;;109011;1251;61126;-81
2023/12/11 06:04:21;;;;;;;30.10;18.20;;;;;;;;;;109502;1251;58837;-80
2023/12/11 06:06:47;;;;;;;8.30;5.10;;;;;;;;;;109511;1251;58930;-81
2023/12/11 06:09:14;;;;;;;7.70;4.10;;;;;;;;;;109538;1250;59067;-81
2023/12/11 06:11:40;;;;;;;16.10;7.70;;;;;;;;;;109562;1250;59171;-80
2023/12/11 06:14:07;;;;;;;13.10;7.20;;;;;;;;;;109527;1250;58903;-80
2023/12/11 06:16:33;;;;;;;15.50;7.70;;;;;;;;;;109538;1251;58953;-81
2023/12/11 06:19:00;;;;;;;13.00;8.30;;;;;;;;;;109539;1251;59131;-80
2023/12/11 06:21:27;;;;;;;12.30;6.40;;;;;;;;;;109537;1251;59072;-80
2023/12/11 06:23:53;;;;;;;9.70;5.70;;;;;;;;;;109497;1255;62931;-81
2023/12/11 06:26:24;;;;;;;10.10;7.00;;;;;;;;;;109591;1250;59259;-80
2023/12/11 06:28:50;;;;;;;17.30;7.00;;;;;;;;;;109527;1253;59466;-81
2023/12/11 06:31:17;;;;;;;15.10;7.30;;;;;;;;;;109553;1251;58883;-80
2023/12/11 06:33:43;;;;;;;21.50;9.80;;;;;;;;;;105658;1251;5106947;-80
2023/12/11 06:36:10;;;;;;;35.90;17.70;;;;;;;;;;109559;1251;59452;-80
2023/12/11 06:38:36;;;;;;;32.80;18.20;;;;;;;;;;107144;1251;60842;-80
2023/12/11 06:41:03;;;;;;;28.30;16.90;;;;;;;;;;107034;1253;60834;-80
2023/12/11 06:43:30;;;;;;;74.20;36.40;;;;;;;;;;107119;1253;59255;-80
2023/12/11 06:45:56;;;;;;;26.00;16.50;;;;;;;;;;107115;1251;60818;-80
2023/12/11 06:48:23;;;;;;;18.10;10.40;;;;;;;;;;107061;1251;60678;-80
2023/12/11 06:50:49;;;;;;;8.70;6.00;;;;;;;;;;107067;1251;59887;-80
2023/12/11 06:53:16;;;;;;;90.30;43.40;;;;;;;;;;107004;1254;59745;-80
2023/12/11 06:55:42;;;;;;;83.20;47.70;;;;;;;;;;107240;1251;62020;-80
2023/12/11 06:58:09;;;;;;;38.20;24.40;;;;;;;;;;107227;1251;59312;-80
2023/12/11 07:00:36;;;;;;;54.30;30.00;;;;;;;;;;107121;1251;59839;-80
2023/12/11 07:03:02;;;;;;;114.40;50.00;;;;;;;;;;106993;1251;59732;-80
2023/12/11 07:05:29;;;;;;;244.40;108.80;;;;;;;;;;107162;1250;60739;-80
2023/12/11 07:07:55;;;;;;;83.50;42.70;;;;;;;;;;107360;1251;59238;-80
2023/12/11 07:10:22;;;;;;;22.90;12.40;;;;;;;;;;107164;1251;59942;-80
2023/12/11 07:12:49;;;;;;;11.30;5.30;;;;;;;;;;107136;1251;59717;-80
2023/12/11 07:15:15;;;;;;;58.00;26.90;;;;;;;;;;107199;1251;61033;-80
2023/12/11 07:17:42;;;;;;;18.80;7.80;;;;;;;;;;107126;1251;59829;-80
2023/12/11 07:20:10;;;;;;;72.70;29.00;;;;;;;;;;107236;1251;59265;-80
2023/12/11 07:22:36;;;;;;;23.60;10.50;;;;;;;;;;109570;1250;60415;-80
2023/12/11 07:25:04;;;;;;;9.80;5.00;;;;;;;;;;107475;1251;61835;-80
2023/12/11 07:27:30;;;;;;;80.90;32.00;;;;;;;;;;107343;1251;60983;-80
2023/12/11 07:29:57;;;;;;;14.10;8.40;;;;;;;;;;107397;1251;59808;-80
2023/12/11 07:32:24;;;;;;;85.90;32.20;;;;;;;;;;108180;1250;59546;-81
2023/12/11 07:34:50;;;;;;;15.10;9.10;;;;;;;;;;109416;1250;62838;-81
2023/12/11 07:37:17;;;;;;;14.50;7.40;;;;;;;;;;109487;1251;58868;-80
2023/12/11 07:39:43;;;;;;;12.70;8.40;;;;;;;;;;109493;1251;59195;-80
2023/12/11 07:42:10;;;;;;;9.90;5.80;;;;;;;;;;109492;1251;58952;-80
2023/12/11 07:44:36;;;;;;;9.80;5.70;;;;;;;;;;109470;1251;59408;-80
2023/12/11 07:47:03;;;;;;;15.40;7.20;;;;;;;;;;109489;1251;60348;-80
2023/12/11 07:49:29;;;;;;;12.40;6.10;;;;;;;;;;109488;1254;59227;-80
2023/12/11 07:51:56;;;;;;;4.90;3.10;;;;;;;;;;109429;1251;59031;-80
2023/12/11 07:54:22;;;;;;;5.00;3.10;;;;;;;;;;109503;1251;59156;-80
2023/12/11 07:56:49;;;;;;;10.90;6.50;;;;;;;;;;109546;1250;59110;-80
2023/12/11 07:59:16;;;;;;;7.60;4.20;;;;;;;;;;109478;1251;60714;-80
2023/12/11 08:01:43;;;;;;;8.50;3.00;;;;;;;;;;109453;1251;58883;-81
2023/12/11 08:04:09;;;;;;;8.30;4.30;;;;;;;;;;109473;1251;60191;-80
2023/12/11 08:06:40;;;;;;;4.00;2.70;;;;;;;;;;109453;1251;59155;-80
2023/12/11 08:09:07;;;;;;;5.70;3.70;;;;;;;;;;109537;1251;58937;-80
2023/12/11 08:11:34;;;;;;;5.00;2.50;;;;;;;;;;109432;1251;61947;-80
2023/12/11 08:14:00;;;;;;;6.00;3.30;;;;;;;;;;109431;1251;59227;-79
2023/12/11 08:16:27;;;;;;;3.60;1.90;;;;;;;;;;109430;1251;58937;-79
2023/12/11 08:18:53;;;;;;;15.20;6.80;;;;;;;;;;109416;1251;58940;-79
2023/12/11 08:21:20;;;;;;;18.30;6.50;;;;;;;;;;109451;1251;58950;-81
2023/12/11 08:23:47;;;;;;;71.90;31.90;;;;;;;;;;109482;1250;59324;-80
2023/12/11 08:26:18;;;;;;;18.10;11.10;;;;;;;;;;109459;1251;59206;-80
2023/12/11 08:28:44;;;;;;;25.10;12.70;;;;;;;;;;109469;1251;60627;-80
2023/12/11 08:31:11;;;;;;;21.70;11.90;;;;;;;;;;109467;1251;58988;-80
2023/12/11 08:33:38;;;;;;;13.60;8.40;;;;;;;;;;109515;1251;58963;-80
2023/12/11 08:36:04;;;;;;;8.30;5.00;;;;;;;;;;109462;1253;61636;-80
2023/12/11 08:38:31;;;;;;;15.90;9.50;;;;;;;;;;109546;1251;58992;-80
2023/12/11 08:40:58;;;;;;;18.50;10.80;;;;;;;;;;109454;1251;59414;-80
2023/12/11 08:43:24;;;;;;;3.30;1.80;;;;;;;;;;109501;1251;58933;-80
2023/12/11 08:45:51;;;;;;;6.90;4.40;;;;;;;;;;109475;1251;58829;-80
2023/12/11 08:48:17;;;;;;;12.80;6.60;;;;;;;;;;109410;1251;60356;-80
2023/12/11 08:50:44;;;;;;;6.60;4.50;;;;;;;;;;109395;1252;59073;-80
2023/12/11 08:53:10;;;;;;;5.90;3.60;;;;;;;;;;109464;1251;58929;-80
2023/12/11 08:55:37;;;;;;;15.20;8.50;;;;;;;;;;109468;1251;59091;-80
2023/12/11 08:58:03;;;;;;;18.40;10.50;;;;;;;;;;109518;1251;58995;-80
2023/12/11 09:00:30;;;;;;;21.50;11.80;;;;;;;;;;109398;1250;61994;-80
2023/12/11 09:02:56;;;;;;;13.00;9.50;;;;;;;;;;109490;1251;58927;-80
2023/12/11 09:05:23;;;;;;;25.30;15.00;;;;;;;;;;109500;1251;59858;-80
2023/12/11 09:07:49;;;;;;;17.80;11.00;;;;;;;;;;109482;1251;60367;-80
2023/12/11 09:10:16;;;;;;;13.50;6.60;;;;;;;;;;109522;1251;58908;-80
2023/12/11 09:12:42;;;;;;;19.70;12.50;;;;;;;;;;109511;1251;59075;-80
2023/12/11 09:15:09;;;;;;;17.50;9.10;;;;;;;;;;109465;1251;59196;-80
2023/12/11 09:17:36;;;;;;;32.40;17.50;;;;;;;;;;109446;1251;60074;-80
2023/12/11 09:20:04;;;;;;;22.00;11.30;;;;;;;;;;109494;1251;59216;-80
2023/12/11 09:22:31;;;;;;;15.70;8.00;;;;;;;;;;109510;1250;59056;-80
2023/12/11 09:24:57;;;;;;;5.80;2.60;;;;;;;;;;109508;1250;61855;-80
2023/12/11 09:27:24;;;;;;;11.90;7.30;;;;;;;;;;109533;1250;59143;-80
2023/12/11 09:29:50;;;;;;;19.60;10.00;;;;;;;;;;109391;1250;59203;-80
2023/12/11 09:32:17;;;;;;;9.60;8.60;;;;;;;;;;107605;1253;59245;-80
2023/12/11 09:34:43;;;;;;;9.30;6.90;;;;;;;;;;107492;1251;59801;-80
2023/12/11 09:37:10;;;;;;;6.20;3.80;;;;;;;;;;107493;1251;63522;-80
2023/12/11 09:39:38;;;;;;;7.00;3.40;;;;;;;;;;107536;1251;59765;-80
2023/12/11 09:42:05;;;;;;;4.60;2.20;;;;;;;;;;107360;1251;60875;-80
2023/12/11 09:44:32;;;;;;;6.80;4.00;;;;;;;;;;109149;1251;60264;-80
2023/12/11 09:47:01;;;;;;;7.00;3.70;;;;;;;;;;109484;1251;59104;-80
2023/12/11 09:49:27;;;;;;;6.40;3.60;;;;;;;;;;109508;1250;61803;-80
2023/12/11 09:51:54;;;;;;;6.30;2.60;;;;;;;;;;109506;1254;59074;-80
2023/12/11 09:54:20;;;;;;;5.50;3.30;;;;;;;;;;109504;1251;58859;-80
2023/12/11 09:56:47;;;;;;;7.90;5.40;;;;;;;;;;109529;1251;59548;-80
2023/12/11 09:59:15;;;;;;;7.30;3.50;;;;;;;;;;109484;1250;58909;-80
2023/12/11 10:01:41;;;;;;;13.00;6.20;;;;;;;;;;109512;1251;61661;-80
2023/12/11 10:04:08;;;;;;;9.10;5.40;;;;;;;;;;109538;1254;59367;-80
2023/12/11 10:06:34;;;;;;;14.40;7.20;;;;;;;;;;109489;1251;60882;-80
2023/12/11 10:09:01;;;;;;;48.50;23.10;;;;;;;;;;109465;1251;59217;-80
2023/12/11 10:11:28;;;;;;;33.90;14.80;;;;;;;;;;109486;1251;59295;-80
2023/12/11 10:13:54;;;;;;;7.00;4.20;;;;;;;;;;109533;1251;62077;-80
2023/12/11 10:16:31;;;;;;;14.80;5.90;;;;;;;;;;109471;1250;58977;-78
2023/12/11 10:18:57;;;;;;;19.90;10.30;;;;;;;;;;109429;1251;60781;-78
2023/12/11 10:21:26;;;;;;;25.60;11.20;;;;;;;;;;109506;1251;59194;-78
2023/12/11 10:24:05;;;;;;;11.90;7.20;;;;;;;;;;109527;1251;59046;-81
2023/12/11 10:26:38;;;;;;;16.10;10.50;;;;;;;;;;109468;1251;62601;-81
2023/12/11 10:29:30;;;;;;;18.40;11.60;;;;;;;;;;109525;1251;59176;-80
2023/12/11 10:32:00;;;;;;;7.50;5.30;;;;;;;;;;109445;1250;59670;-80
2023/12/11 10:34:41;;;;;;;20.60;10.10;;;;;;;;;;109458;1251;58983;-80
2023/12/11 10:37:08;;;;;;;5.90;3.50;;;;;;;;;;109503;1250;59101;-81
2023/12/11 10:39:35;;;;;;;11.80;7.70;;;;;;;;;;109474;1251;61635;-81
2023/12/11 10:42:11;;;;;;;21.60;11.40;;;;;;;;;;107809;1251;59260;-80
2023/12/11 10:44:38;;;;;;;27.10;17.90;;;;;;;;;;107540;1251;61078;-80
2023/12/11 10:47:04;;;;;;;25.30;15.60;;;;;;;;;;107504;1250;60805;-80
2023/12/11 10:49:31;;;;;;;15.50;9.00;;;;;;;;;;107543;1251;60579;-78
2023/12/11 10:51:57;;;;;;;11.00;6.30;;;;;;;;;;107387;1251;59613;-77
2023/12/11 10:54:24;;;;;;;26.50;18.10;;;;;;;;;;107415;1251;60655;-78
2023/12/11 10:56:50;;;;;;;22.60;14.50;;;;;;;;;;107549;1251;59689;-80
2023/12/11 10:59:17;;;;;;;5.40;3.40;;;;;;;;;;107407;1251;60795;-80
2023/12/11 11:01:46;;;;;;;7.70;4.90;;;;;;;;;;107410;1251;60801;-80
2023/12/11 11:04:13;;;;;;;10.60;5.80;;;;;;;;;;107366;1253;60826;-81
2023/12/11 11:06:46;;;;;;;7.80;4.60;;;;;;;;;;107697;1251;59750;-77
2023/12/11 11:09:14;;;;;;;12.40;7.00;;;;;;;;;;107740;1254;59816;-80
2023/12/11 11:11:42;;;;;;;9.10;4.80;;;;;;;;;;109524;1251;58890;-80
2023/12/11 11:14:20;;;;;;;12.00;7.40;;;;;;;;;;109468;1251;59097;-80
2023/12/11 11:16:52;;;;;;;39.60;22.70;;;;;;;;;;109490;1251;60805;-80
2023/12/11 11:19:19;;;;;;;27.20;16.50;;;;;;;;;;109505;1252;59329;-80
2023/12/11 11:22:03;;;;;;;7.80;4.80;;;;;;;;;;109484;1251;59416;-80
2023/12/11 11:24:30;;;;;;;35.00;18.10;;;;;;;;;;109529;1250;58939;-80
2023/12/11 11:26:56;;;;;;;12.90;8.80;;;;;;;;;;109491;1251;59128;-80
2023/12/11 11:29:41;;;;;;;23.40;14.40;;;;;;;;;;109515;1251;61637;-80
2023/12/11 11:32:08;;;;;;;12.60;6.90;;;;;;;;;;109493;1250;59195;-80
2023/12/11 11:34:41;;;;;;;5.30;3.70;;;;;;;;;;109454;1251;60740;-80
2023/12/11 11:37:08;;;;;;;18.00;9.70;;;;;;;;;;109522;1251;59356;-80
2023/12/11 11:39:53;;;;;;;9.60;6.20;;;;;;;;;;109486;1251;58824;-80
2023/12/11 11:42:20;;;;;;;7.50;4.40;;;;;;;;;;108376;1251;61808;-80
2023/12/11 11:44:46;;;;;;;6.80;4.30;;;;;;;;;;107254;1251;59718;-81
2023/12/11 11:47:18;;;;;;;13.20;8.30;;;;;;;;;;107396;1251;60946;-80
2023/12/11 11:49:45;;;;;;;18.20;9.40;;;;;;;;;;107277;1251;59490;-80
2023/12/11 11:52:12;;;;;;;16.60;9.00;;;;;;;;;;107267;1251;59803;-80
2023/12/11 11:54:38;;;;;;;8.20;3.80;;;;;;;;;;107284;1252;61613;-80
2023/12/11 11:57:08;;;;;;;29.20;14.40;;;;;;;;;;107550;1251;60879;-80
2023/12/11 11:59:44;;;;;;;19.90;9.50;;;;;;;;;;107318;1251;60774;-80
2023/12/11 12:02:11;;;;;;;8.00;3.90;;;;;;;;;;107305;1251;59807;-80
2023/12/11 12:04:37;;;;;;;161.40;57.30;;;;;;;;;;107378;1253;59208;-80
2023/12/11 12:07:04;;;;;;;39.10;17.00;;;;;;;;;;107358;1254;59649;-80
2023/12/11 12:09:31;;;;;;;61.20;26.40;;;;;;;;;;107380;1253;59999;-80
2023/12/11 12:12:00;;;;;;;10.60;5.60;;;;;;;;;;107314;1251;59825;-80
2023/12/11 12:14:27;;;;;;;40.10;15.40;;;;;;;;;;107320;1253;61995;-81
2023/12/11 12:16:53;;;;;;;7.40;5.20;;;;;;;;;;107534;1253;59799;-80
2023/12/11 12:19:32;;;;;;;7.70;4.30;;;;;;;;;;107432;1251;59732;-82
2023/12/11 12:21:59;;;;;;;;;;;;;;;;;;107346;1251;60929;-80
2023/12/11 12:24:25;;;;;;;9.80;5.90;;;;;;;;;;107387;1251;59657;-80
2023/12/11 12:26:53;;;;;;;5.40;3.30;;;;;;;;;;107478;1249;59807;-80
2023/12/11 12:29:20;;;;;;;9.40;4.30;;;;;;;;;;107702;1251;59466;-80
2023/12/11 12:31:46;;;;;;;10.10;4.80;;;;;;;;;;107615;1250;62603;-80
2023/12/11 12:34:17;;;;;;;25.20;14.00;;;;;;;;;;107567;1256;60945;-80
2023/12/11 12:36:43;;;;;;;25.80;14.80;;;;;;;;;;107573;1251;61821;-80
2023/12/11 12:39:13;;;;;;;23.30;10.10;;;;;;;;;;107436;1251;60815;-80
2023/12/11 12:41:39;;;;;;;11.70;4.50;;;;;;;;;;107481;1251;61012;-80
2023/12/11 12:44:06;;;;;;;11.30;7.20;;;;;;;;;;108362;1251;59773;-78
2023/12/11 12:46:39;;;;;;;13.10;7.00;;;;;;;;;;109573;1251;59076;-78
2023/12/11 12:49:09;;;;;;;11.30;7.90;;;;;;;;;;109502;1252;60744;-78
2023/12/11 12:51:51;;;;;;;28.90;13.80;;;;;;;;;;107643;1255;59818;-78
2023/12/11 12:54:18;;;;;;;16.70;9.00;;;;;;;;;;107487;1251;59532;-78
2023/12/11 12:56:44;;;;;;;128.60;53.30;;;;;;;;;;109436;1251;61633;-78
2023/12/11 12:59:11;;;;;;;30.80;17.40;;;;;;;;;;109535;1251;59027;-78
2023/12/11 13:01:39;;;;;;;14.40;8.80;;;;;;;;;;108453;1251;60870;-78
2023/12/11 13:04:10;;;;;;;10.10;6.50;;;;;;;;;;107387;1250;60857;-80
2023/12/11 13:06:36;;;;;;;18.90;9.00;;;;;;;;;;109524;1251;58961;-80
2023/12/11 13:09:03;;;;;;;17.90;11.30;;;;;;;;;;109511;1250;61660;-80
2023/12/11 13:11:40;;;;;;;7.20;4.50;;;;;;;;;;109538;1252;59098;-80
2023/12/11 13:14:07;;;;;;;20.70;9.00;;;;;;;;;;109450;1251;60037;-80
2023/12/11 13:16:34;;;;;;;16.30;8.50;;;;;;;;;;109496;1251;59184;-80
2023/12/11 13:19:01;;;;;;;14.70;8.00;;;;;;;;;;109511;1253;59328;-80
2023/12/11 13:21:28;;;;;;;33.70;14.50;;;;;;;;;;109505;1253;62855;-81
2023/12/11 13:23:55;;;;;;;111.40;44.10;;;;;;;;;;107962;1253;59758;-80
2023/12/11 13:26:22;;;;;;;35.80;18.90;;;;;;;;;;107391;1251;60853;-80
2023/12/11 13:28:48;;;;;;;16.30;10.40;;;;;;;;;;109493;1252;59398;-80
2023/12/11 13:31:15;;;;;;;16.20;8.80;;;;;;;;;;109530;1251;59303;-80
2023/12/11 13:33:41;;;;;;;8.70;5.90;;;;;;;;;;109503;1251;59433;-80
2023/12/11 13:36:08;;;;;;;47.30;25.00;;;;;;;;;;109515;1251;59176;-80
2023/12/11 13:38:39;;;;;;;16.80;8.40;;;;;;;;;;109494;1251;59130;-80
2023/12/11 13:41:05;;;;;;;27.70;11.60;;;;;;;;;;109501;1250;59223;-80
2023/12/11 13:43:32;;;;;;;34.40;12.30;;;;;;;;;;107335;1252;59732;-80
2023/12/11 13:45:59;;;;;;;34.10;14.80;;;;;;;;;;107391;1252;59865;-80
2023/12/11 13:48:27;;;;;;;31.50;13.70;;;;;;;;;;108975;1253;59511;-80
2023/12/11 13:50:53;;;;;;;22.40;10.70;;;;;;;;;;107290;1250;61440;-80
2023/12/11 13:53:20;;;;;;;16.30;9.80;;;;;;;;;;107599;1252;60149;-80
2023/12/11 13:55:47;;;;;;;35.20;17.00;;;;;;;;;;109448;1251;58911;-80
2023/12/11 13:58:13;;;;;;;79.90;34.10;;;;;;;;;;109471;1251;59783;-80
2023/12/11 14:00:40;;;;;;;38.40;16.10;;;;;;;;;;108801;1254;59421;-80
2023/12/11 14:03:06;;;;;;;52.40;23.80;;;;;;;;;;107395;1253;59459;-81
2023/12/11 14:05:33;;;;;;;37.50;15.70;;;;;;;;;;108451;1250;60843;-80
2023/12/11 14:08:00;;;;;;;38.00;19.10;;;;;;;;;;109554;1253;59129;-80